Weather at Adana City Training and Research Hospital

Public forecast

Using degrees Celsius for public forecast. Weather courtesy of forecast.io.

Closest aviation weather report (METAR) to Adana City Training and Research Hospital

Closest report is İncirlik Air Base, 4.1 nm (7.6 km) ESE.

2024/05/24 18:50 (retrieved 33 minutes ago)

LTAG 241850Z 02003KT 9999 SCT030 BKN100 19/15 Q1006 NOSIG

Closest aviation forecast (TAF) to Adana City Training and Research Hospital

Closest forecast is İncirlik Air Base, 4.1 nm (7.6 km) ESE.

2024/05/24 18:03 (retrieved 1 hour ago)

TAF LTAG 241640Z 2418/2518 VRB02KT 9999 FEW035 SCT100 TEMPO 2511/2515 22012KT